sensor_id;sensor_type;location;lat;lon;timestamp;P1;durP1;ratioP1;P2;durP2;ratioP2
18738;SDS011;9498;51.862;19.460;2023-05-18T00:01:20;11.87;;;2.73;;
18738;SDS011;9498;51.862;19.460;2023-05-18T00:03:47;11.07;;;2.67;;
18738;SDS011;9498;51.862;19.460;2023-05-18T00:06:18;14.20;;;2.20;;
18738;SDS011;9498;51.862;19.460;2023-05-18T00:08:46;13.93;;;2.63;;
18738;SDS011;9498;51.862;19.460;2023-05-18T00:11:13;8.23;;;2.63;;
18738;SDS011;9498;51.862;19.460;2023-05-18T00:13:41;13.37;;;2.70;;
18738;SDS011;9498;51.862;19.460;2023-05-18T00:16:08;12.77;;;2.30;;
18738;SDS011;9498;51.862;19.460;2023-05-18T00:18:37;8.23;;;2.43;;
18738;SDS011;9498;51.862;19.460;2023-05-18T00:21:04;13.43;;;2.83;;
18738;SDS011;9498;51.862;19.460;2023-05-18T00:23:33;12.50;;;2.73;;
18738;SDS011;9498;51.862;19.460;2023-05-18T00:26:03;12.00;;;2.63;;
18738;SDS011;9498;51.862;19.460;2023-05-18T00:28:30;10.27;;;2.70;;
18738;SDS011;9498;51.862;19.460;2023-05-18T00:30:58;7.27;;;2.40;;
18738;SDS011;9498;51.862;19.460;2023-05-18T00:33:25;5.90;;;2.20;;
18738;SDS011;9498;51.862;19.460;2023-05-18T00:35:54;6.43;;;2.40;;
18738;SDS011;9498;51.862;19.460;2023-05-18T00:38:21;10.17;;;1.97;;
18738;SDS011;9498;51.862;19.460;2023-05-18T00:40:49;12.43;;;2.60;;
18738;SDS011;9498;51.862;19.460;2023-05-18T00:43:16;9.20;;;2.60;;
18738;SDS011;9498;51.862;19.460;2023-05-18T00:45:44;10.40;;;2.43;;
18738;SDS011;9498;51.862;19.460;2023-05-18T00:48:11;7.63;;;2.40;;
18738;SDS011;9498;51.862;19.460;2023-05-18T00:50:38;8.93;;;2.67;;
18738;SDS011;9498;51.862;19.460;2023-05-18T00:53:07;13.43;;;2.57;;
18738;SDS011;9498;51.862;19.460;2023-05-18T00:55:35;14.20;;;3.30;;
18738;SDS011;9498;51.862;19.460;2023-05-18T00:58:02;14.93;;;3.17;;
18738;SDS011;9498;51.862;19.460;2023-05-18T01:00:30;9.73;;;2.87;;
18738;SDS011;9498;51.862;19.460;2023-05-18T01:03:01;11.97;;;2.50;;
18738;SDS011;9498;51.862;19.460;2023-05-18T01:05:29;11.87;;;2.20;;
18738;SDS011;9498;51.862;19.460;2023-05-18T01:07:56;10.30;;;2.00;;
18738;SDS011;9498;51.862;19.460;2023-05-18T01:10:25;13.10;;;2.97;;
18738;SDS011;9498;51.862;19.460;2023-05-18T01:12:52;10.53;;;2.80;;
18738;SDS011;9498;51.862;19.460;2023-05-18T01:15:22;7.13;;;2.23;;
18738;SDS011;9498;51.862;19.460;2023-05-18T01:17:52;15.33;;;2.90;;
18738;SDS011;9498;51.862;19.460;2023-05-18T01:20:30;14.83;;;2.90;;
18738;SDS011;9498;51.862;19.460;2023-05-18T01:23:13;11.67;;;2.80;;
18738;SDS011;9498;51.862;19.460;2023-05-18T01:25:46;5.37;;;2.13;;
18738;SDS011;9498;51.862;19.460;2023-05-18T01:28:19;15.37;;;2.37;;
18738;SDS011;9498;51.862;19.460;2023-05-18T01:30:46;19.37;;;3.00;;
18738;SDS011;9498;51.862;19.460;2023-05-18T01:33:14;9.93;;;2.80;;
18738;SDS011;9498;51.862;19.460;2023-05-18T01:35:41;10.03;;;2.40;;
18738;SDS011;9498;51.862;19.460;2023-05-18T01:38:12;10.17;;;3.03;;
18738;SDS011;9498;51.862;19.460;2023-05-18T01:40:40;10.67;;;2.33;;
18738;SDS011;9498;51.862;19.460;2023-05-18T01:43:10;11.77;;;2.73;;
18738;SDS011;9498;51.862;19.460;2023-05-18T01:45:39;10.87;;;3.20;;
18738;SDS011;9498;51.862;19.460;2023-05-18T01:48:09;10.53;;;3.10;;
18738;SDS011;9498;51.862;19.460;2023-05-18T01:50:38;16.23;;;2.50;;
18738;SDS011;9498;51.862;19.460;2023-05-18T01:53:10;13.17;;;2.40;;
18738;SDS011;9498;51.862;19.460;2023-05-18T01:55:38;9.40;;;2.17;;
18738;SDS011;9498;51.862;19.460;2023-05-18T01:58:06;11.93;;;2.63;;
18738;SDS011;9498;51.862;19.460;2023-05-18T02:00:33;7.87;;;2.47;;
18738;SDS011;9498;51.862;19.460;2023-05-18T02:03:02;12.30;;;2.63;;
18738;SDS011;9498;51.862;19.460;2023-05-18T02:05:30;18.00;;;2.77;;
18738;SDS011;9498;51.862;19.460;2023-05-18T02:07:57;14.00;;;2.80;;
18738;SDS011;9498;51.862;19.460;2023-05-18T02:10:25;9.27;;;2.67;;
18738;SDS011;9498;51.862;19.460;2023-05-18T02:12:52;7.80;;;2.70;;
18738;SDS011;9498;51.862;19.460;2023-05-18T02:15:19;9.80;;;2.80;;
18738;SDS011;9498;51.862;19.460;2023-05-18T02:17:46;10.60;;;2.53;;
18738;SDS011;9498;51.862;19.460;2023-05-18T02:20:15;15.33;;;2.80;;
18738;SDS011;9498;51.862;19.460;2023-05-18T02:22:43;8.67;;;2.63;;
18738;SDS011;9498;51.862;19.460;2023-05-18T02:25:11;13.17;;;3.17;;
18738;SDS011;9498;51.862;19.460;2023-05-18T02:27:38;14.80;;;3.57;;
18738;SDS011;9498;51.862;19.460;2023-05-18T02:30:06;13.10;;;2.90;;
18738;SDS011;9498;51.862;19.460;2023-05-18T02:32:33;16.43;;;3.53;;
18738;SDS011;9498;51.862;19.460;2023-05-18T02:35:02;17.47;;;3.07;;
18738;SDS011;9498;51.862;19.460;2023-05-18T02:37:31;10.40;;;2.97;;
18738;SDS011;9498;51.862;19.460;2023-05-18T02:40:04;12.37;;;3.63;;
18738;SDS011;9498;51.862;19.460;2023-05-18T02:42:31;11.23;;;3.33;;
18738;SDS011;9498;51.862;19.460;2023-05-18T02:44:58;10.67;;;2.97;;
18738;SDS011;9498;51.862;19.460;2023-05-18T02:47:26;14.40;;;3.00;;
18738;SDS011;9498;51.862;19.460;2023-05-18T02:49:53;11.30;;;3.47;;
18738;SDS011;9498;51.862;19.460;2023-05-18T02:52:20;11.10;;;3.10;;
18738;SDS011;9498;51.862;19.460;2023-05-18T02:54:49;9.60;;;2.83;;
18738;SDS011;9498;51.862;19.460;2023-05-18T02:57:18;11.73;;;3.17;;
18738;SDS011;9498;51.862;19.460;2023-05-18T02:59:46;8.40;;;2.93;;
18738;SDS011;9498;51.862;19.460;2023-05-18T03:02:13;16.17;;;3.03;;
18738;SDS011;9498;51.862;19.460;2023-05-18T03:04:40;11.17;;;3.03;;
18738;SDS011;9498;51.862;19.460;2023-05-18T03:07:08;10.63;;;2.73;;
18738;SDS011;9498;51.862;19.460;2023-05-18T03:09:35;10.70;;;3.33;;
18738;SDS011;9498;51.862;19.460;2023-05-18T03:12:04;11.10;;;3.13;;
18738;SDS011;9498;51.862;19.460;2023-05-18T03:14:31;12.00;;;2.93;;
18738;SDS011;9498;51.862;19.460;2023-05-18T03:16:58;13.50;;;2.83;;
18738;SDS011;9498;51.862;19.460;2023-05-18T03:19:29;11.40;;;3.00;;
18738;SDS011;9498;51.862;19.460;2023-05-18T03:21:58;8.67;;;2.97;;
18738;SDS011;9498;51.862;19.460;2023-05-18T03:24:26;20.63;;;3.33;;
18738;SDS011;9498;51.862;19.460;2023-05-18T03:26:54;13.10;;;3.17;;
18738;SDS011;9498;51.862;19.460;2023-05-18T03:29:22;10.47;;;2.83;;
18738;SDS011;9498;51.862;19.460;2023-05-18T03:31:50;12.17;;;2.87;;
18738;SDS011;9498;51.862;19.460;2023-05-18T03:34:17;15.80;;;3.13;;
18738;SDS011;9498;51.862;19.460;2023-05-18T03:36:45;8.80;;;2.63;;
18738;SDS011;9498;51.862;19.460;2023-05-18T03:39:12;14.27;;;2.93;;
18738;SDS011;9498;51.862;19.460;2023-05-18T03:41:40;11.03;;;2.83;;
18738;SDS011;9498;51.862;19.460;2023-05-18T03:44:07;11.93;;;2.87;;
18738;SDS011;9498;51.862;19.460;2023-05-18T03:46:36;15.60;;;3.10;;
18738;SDS011;9498;51.862;19.460;2023-05-18T03:49:03;16.97;;;3.20;;
18738;SDS011;9498;51.862;19.460;2023-05-18T03:51:31;11.10;;;3.00;;
18738;SDS011;9498;51.862;19.460;2023-05-18T03:53:59;15.13;;;3.10;;
18738;SDS011;9498;51.862;19.460;2023-05-18T03:56:26;10.23;;;2.70;;
18738;SDS011;9498;51.862;19.460;2023-05-18T03:58:55;12.07;;;3.33;;
18738;SDS011;9498;51.862;19.460;2023-05-18T04:01:23;12.43;;;2.27;;
18738;SDS011;9498;51.862;19.460;2023-05-18T04:03:51;13.60;;;2.93;;
18738;SDS011;9498;51.862;19.460;2023-05-18T04:06:20;11.50;;;3.17;;
18738;SDS011;9498;51.862;19.460;2023-05-18T04:08:47;10.37;;;3.27;;
18738;SDS011;9498;51.862;19.460;2023-05-18T04:11:15;14.20;;;2.90;;
18738;SDS011;9498;51.862;19.460;2023-05-18T04:13:42;12.87;;;3.10;;
18738;SDS011;9498;51.862;19.460;2023-05-18T04:16:09;9.97;;;2.80;;
18738;SDS011;9498;51.862;19.460;2023-05-18T04:18:37;8.93;;;3.07;;
18738;SDS011;9498;51.862;19.460;2023-05-18T04:21:06;9.97;;;2.90;;
18738;SDS011;9498;51.862;19.460;2023-05-18T04:23:33;12.27;;;2.87;;
18738;SDS011;9498;51.862;19.460;2023-05-18T04:26:03;8.40;;;2.67;;
18738;SDS011;9498;51.862;19.460;2023-05-18T04:28:31;14.30;;;3.60;;
18738;SDS011;9498;51.862;19.460;2023-05-18T04:30:58;12.10;;;2.90;;
18738;SDS011;9498;51.862;19.460;2023-05-18T04:33:26;9.80;;;3.40;;
18738;SDS011;9498;51.862;19.460;2023-05-18T04:35:53;15.40;;;3.53;;
18738;SDS011;9498;51.862;19.460;2023-05-18T04:38:24;15.17;;;3.63;;
18738;SDS011;9498;51.862;19.460;2023-05-18T04:40:51;9.10;;;3.10;;
18738;SDS011;9498;51.862;19.460;2023-05-18T04:43:19;11.57;;;3.47;;
18738;SDS011;9498;51.862;19.460;2023-05-18T04:45:46;12.93;;;3.60;;
18738;SDS011;9498;51.862;19.460;2023-05-18T04:48:14;13.07;;;3.20;;
18738;SDS011;9498;51.862;19.460;2023-05-18T04:50:43;13.20;;;3.60;;
18738;SDS011;9498;51.862;19.460;2023-05-18T04:53:11;12.73;;;3.00;;
18738;SDS011;9498;51.862;19.460;2023-05-18T04:55:43;12.57;;;3.10;;
18738;SDS011;9498;51.862;19.460;2023-05-18T04:58:11;16.77;;;3.80;;
18738;SDS011;9498;51.862;19.460;2023-05-18T05:00:39;7.60;;;2.77;;
18738;SDS011;9498;51.862;19.460;2023-05-18T05:03:06;8.23;;;2.93;;
18738;SDS011;9498;51.862;19.460;2023-05-18T05:05:33;13.27;;;3.30;;
18738;SDS011;9498;51.862;19.460;2023-05-18T05:08:00;15.30;;;3.23;;
18738;SDS011;9498;51.862;19.460;2023-05-18T05:10:28;10.67;;;4.00;;
18738;SDS011;9498;51.862;19.460;2023-05-18T05:12:57;8.10;;;2.90;;
18738;SDS011;9498;51.862;19.460;2023-05-18T05:15:24;14.40;;;3.13;;
18738;SDS011;9498;51.862;19.460;2023-05-18T05:17:52;11.50;;;2.77;;
18738;SDS011;9498;51.862;19.460;2023-05-18T05:20:19;14.97;;;3.00;;
18738;SDS011;9498;51.862;19.460;2023-05-18T05:22:46;7.77;;;2.43;;
18738;SDS011;9498;51.862;19.460;2023-05-18T05:25:14;10.60;;;2.93;;
18738;SDS011;9498;51.862;19.460;2023-05-18T05:27:41;9.17;;;2.53;;
18738;SDS011;9498;51.862;19.460;2023-05-18T05:30:10;7.70;;;2.80;;
18738;SDS011;9498;51.862;19.460;2023-05-18T05:32:37;9.07;;;3.10;;
18738;SDS011;9498;51.862;19.460;2023-05-18T05:35:05;9.77;;;2.97;;
18738;SDS011;9498;51.862;19.460;2023-05-18T05:37:33;9.97;;;2.77;;
18738;SDS011;9498;51.862;19.460;2023-05-18T05:40:01;7.87;;;2.67;;
18738;SDS011;9498;51.862;19.460;2023-05-18T05:42:30;8.07;;;2.90;;
18738;SDS011;9498;51.862;19.460;2023-05-18T05:44:57;8.60;;;2.83;;
18738;SDS011;9498;51.862;19.460;2023-05-18T05:47:26;12.80;;;2.60;;
18738;SDS011;9498;51.862;19.460;2023-05-18T05:49:53;10.73;;;3.50;;
18738;SDS011;9498;51.862;19.460;2023-05-18T05:52:20;11.17;;;2.90;;
18738;SDS011;9498;51.862;19.460;2023-05-18T05:54:48;16.07;;;3.37;;
18738;SDS011;9498;51.862;19.460;2023-05-18T05:57:15;9.10;;;2.70;;
18738;SDS011;9498;51.862;19.460;2023-05-18T05:59:42;10.50;;;2.73;;
18738;SDS011;9498;51.862;19.460;2023-05-18T06:02:09;5.77;;;2.30;;
18738;SDS011;9498;51.862;19.460;2023-05-18T06:04:38;13.67;;;3.03;;
18738;SDS011;9498;51.862;19.460;2023-05-18T06:07:05;5.93;;;2.10;;
18738;SDS011;9498;51.862;19.460;2023-05-18T06:09:33;8.80;;;2.37;;
18738;SDS011;9498;51.862;19.460;2023-05-18T06:12:00;13.37;;;2.57;;
18738;SDS011;9498;51.862;19.460;2023-05-18T06:14:27;10.10;;;2.47;;
18738;SDS011;9498;51.862;19.460;2023-05-18T06:16:54;15.27;;;2.47;;
18738;SDS011;9498;51.862;19.460;2023-05-18T06:19:22;6.43;;;2.50;;
18738;SDS011;9498;51.862;19.460;2023-05-18T06:21:50;8.27;;;2.20;;
18738;SDS011;9498;51.862;19.460;2023-05-18T06:24:17;7.90;;;2.30;;
18738;SDS011;9498;51.862;19.460;2023-05-18T06:26:45;9.10;;;2.90;;
18738;SDS011;9498;51.862;19.460;2023-05-18T06:29:12;12.83;;;2.80;;
18738;SDS011;9498;51.862;19.460;2023-05-18T06:31:39;10.27;;;2.20;;
18738;SDS011;9498;51.862;19.460;2023-05-18T06:34:07;7.23;;;2.23;;
18738;SDS011;9498;51.862;19.460;2023-05-18T06:36:34;6.60;;;1.83;;
18738;SDS011;9498;51.862;19.460;2023-05-18T06:39:03;9.93;;;2.17;;
18738;SDS011;9498;51.862;19.460;2023-05-18T06:41:31;8.97;;;2.30;;
18738;SDS011;9498;51.862;19.460;2023-05-18T06:43:59;4.77;;;2.00;;
18738;SDS011;9498;51.862;19.460;2023-05-18T06:46:26;6.53;;;2.40;;
18738;SDS011;9498;51.862;19.460;2023-05-18T06:48:53;5.53;;;2.10;;
18738;SDS011;9498;51.862;19.460;2023-05-18T06:51:21;10.47;;;2.40;;
18738;SDS011;9498;51.862;19.460;2023-05-18T06:53:48;6.30;;;2.10;;
18738;SDS011;9498;51.862;19.460;2023-05-18T06:56:17;10.27;;;2.40;;
18738;SDS011;9498;51.862;19.460;2023-05-18T06:58:44;11.93;;;2.80;;
18738;SDS011;9498;51.862;19.460;2023-05-18T07:01:11;12.60;;;2.30;;
18738;SDS011;9498;51.862;19.460;2023-05-18T07:03:44;9.43;;;2.33;;
18738;SDS011;9498;51.862;19.460;2023-05-18T07:06:11;6.77;;;1.93;;
18738;SDS011;9498;51.862;19.460;2023-05-18T07:08:38;7.77;;;2.70;;
18738;SDS011;9498;51.862;19.460;2023-05-18T07:11:06;5.67;;;2.10;;
18738;SDS011;9498;51.862;19.460;2023-05-18T07:13:35;9.47;;;2.20;;
18738;SDS011;9498;51.862;19.460;2023-05-18T07:16:02;13.73;;;2.30;;
18738;SDS011;9498;51.862;19.460;2023-05-18T07:18:29;11.50;;;2.27;;
18738;SDS011;9498;51.862;19.460;2023-05-18T07:20:58;6.20;;;1.90;;
18738;SDS011;9498;51.862;19.460;2023-05-18T07:23:25;4.13;;;1.80;;
18738;SDS011;9498;51.862;19.460;2023-05-18T07:25:52;6.67;;;2.47;;
18738;SDS011;9498;51.862;19.460;2023-05-18T07:28:20;8.67;;;2.20;;
18738;SDS011;9498;51.862;19.460;2023-05-18T07:30:48;6.20;;;2.23;;
18738;SDS011;9498;51.862;19.460;2023-05-18T07:33:15;5.00;;;2.47;;
18738;SDS011;9498;51.862;19.460;2023-05-18T07:35:43;6.87;;;1.90;;
18738;SDS011;9498;51.862;19.460;2023-05-18T07:38:10;4.50;;;1.90;;
18738;SDS011;9498;51.862;19.460;2023-05-18T07:40:37;6.80;;;1.93;;
18738;SDS011;9498;51.862;19.460;2023-05-18T07:43:05;8.07;;;2.70;;
18738;SDS011;9498;51.862;19.460;2023-05-18T07:45:32;6.67;;;2.07;;
18738;SDS011;9498;51.862;19.460;2023-05-18T07:48:00;6.60;;;2.27;;
18738;SDS011;9498;51.862;19.460;2023-05-18T07:50:28;8.97;;;2.03;;
18738;SDS011;9498;51.862;19.460;2023-05-18T07:52:55;3.40;;;2.00;;
18738;SDS011;9498;51.862;19.460;2023-05-18T07:55:22;3.00;;;1.90;;
18738;SDS011;9498;51.862;19.460;2023-05-18T07:57:49;3.80;;;1.97;;
18738;SDS011;9498;51.862;19.460;2023-05-18T08:00:17;6.60;;;2.10;;
18738;SDS011;9498;51.862;19.460;2023-05-18T08:02:44;5.67;;;2.00;;
18738;SDS011;9498;51.862;19.460;2023-05-18T08:05:13;8.03;;;1.67;;
18738;SDS011;9498;51.862;19.460;2023-05-18T08:07:40;9.93;;;2.50;;
18738;SDS011;9498;51.862;19.460;2023-05-18T08:10:08;7.57;;;2.10;;
18738;SDS011;9498;51.862;19.460;2023-05-18T08:12:35;6.63;;;2.30;;
18738;SDS011;9498;51.862;19.460;2023-05-18T08:15:03;8.03;;;2.30;;
18738;SDS011;9498;51.862;19.460;2023-05-18T08:17:30;4.77;;;2.13;;
18738;SDS011;9498;51.862;19.460;2023-05-18T08:19:57;6.93;;;2.37;;
18738;SDS011;9498;51.862;19.460;2023-05-18T08:22:26;6.67;;;2.10;;
18738;SDS011;9498;51.862;19.460;2023-05-18T08:24:53;6.00;;;1.90;;
18738;SDS011;9498;51.862;19.460;2023-05-18T08:27:20;6.13;;;1.90;;
18738;SDS011;9498;51.862;19.460;2023-05-18T08:29:47;6.77;;;1.73;;
18738;SDS011;9498;51.862;19.460;2023-05-18T08:32:15;5.10;;;1.40;;
18738;SDS011;9498;51.862;19.460;2023-05-18T08:34:42;5.03;;;1.70;;
18738;SDS011;9498;51.862;19.460;2023-05-18T08:37:09;8.17;;;1.60;;
18738;SDS011;9498;51.862;19.460;2023-05-18T08:39:38;5.67;;;1.70;;
18738;SDS011;9498;51.862;19.460;2023-05-18T08:42:06;6.83;;;1.80;;
18738;SDS011;9498;51.862;19.460;2023-05-18T08:44:39;4.90;;;1.90;;
18738;SDS011;9498;51.862;19.460;2023-05-18T08:47:07;4.43;;;1.90;;
18738;SDS011;9498;51.862;19.460;2023-05-18T08:49:35;6.47;;;2.10;;
18738;SDS011;9498;51.862;19.460;2023-05-18T08:52:03;4.90;;;1.90;;
18738;SDS011;9498;51.862;19.460;2023-05-18T08:54:31;4.73;;;2.17;;
18738;SDS011;9498;51.862;19.460;2023-05-18T08:57:00;6.10;;;1.97;;
18738;SDS011;9498;51.862;19.460;2023-05-18T08:59:29;4.10;;;1.87;;
18738;SDS011;9498;51.862;19.460;2023-05-18T09:01:57;7.33;;;1.77;;
18738;SDS011;9498;51.862;19.460;2023-05-18T09:04:24;3.40;;;1.60;;
18738;SDS011;9498;51.862;19.460;2023-05-18T09:06:52;6.57;;;1.90;;
18738;SDS011;9498;51.862;19.460;2023-05-18T09:09:20;6.55;;;2.00;;
18738;SDS011;9498;51.862;19.460;2023-05-18T09:11:48;5.47;;;1.77;;
18738;SDS011;9498;51.862;19.460;2023-05-18T09:14:17;5.63;;;2.10;;
18738;SDS011;9498;51.862;19.460;2023-05-18T09:16:47;3.10;;;1.60;;
18738;SDS011;9498;51.862;19.460;2023-05-18T09:19:14;3.30;;;1.70;;
18738;SDS011;9498;51.862;19.460;2023-05-18T09:21:41;3.23;;;1.50;;
18738;SDS011;9498;51.862;19.460;2023-05-18T09:24:08;10.30;;;1.73;;
18738;SDS011;9498;51.862;19.460;2023-05-18T09:26:36;4.83;;;1.80;;
18738;SDS011;9498;51.862;19.460;2023-05-18T09:29:13;2.97;;;1.67;;
18738;SDS011;9498;51.862;19.460;2023-05-18T09:31:42;1.63;;;1.30;;
18738;SDS011;9498;51.862;19.460;2023-05-18T09:34:10;7.53;;;1.67;;
18738;SDS011;9498;51.862;19.460;2023-05-18T09:36:37;3.60;;;1.60;;
18738;SDS011;9498;51.862;19.460;2023-05-18T09:39:08;3.50;;;1.60;;
18738;SDS011;9498;51.862;19.460;2023-05-18T09:41:36;4.10;;;1.50;;
18738;SDS011;9498;51.862;19.460;2023-05-18T09:44:04;4.53;;;1.80;;
18738;SDS011;9498;51.862;19.460;2023-05-18T09:46:55;5.73;;;1.73;;
18738;SDS011;9498;51.862;19.460;2023-05-18T09:49:38;4.07;;;1.90;;
18738;SDS011;9498;51.862;19.460;2023-05-18T09:52:06;1.97;;;1.60;;
18738;SDS011;9498;51.862;19.460;2023-05-18T09:54:34;4.70;;;1.60;;
18738;SDS011;9498;51.862;19.460;2023-05-18T09:57:02;6.23;;;1.53;;
18738;SDS011;9498;51.862;19.460;2023-05-18T09:59:30;2.67;;;1.80;;
18738;SDS011;9498;51.862;19.460;2023-05-18T10:02:00;5.17;;;1.77;;
18738;SDS011;9498;51.862;19.460;2023-05-18T10:04:35;3.23;;;1.57;;
18738;SDS011;9498;51.862;19.460;2023-05-18T10:07:07;11.07;;;2.20;;
18738;SDS011;9498;51.862;19.460;2023-05-18T10:09:36;4.83;;;1.70;;
18738;SDS011;9498;51.862;19.460;2023-05-18T10:12:08;2.90;;;1.43;;
18738;SDS011;9498;51.862;19.460;2023-05-18T10:14:36;4.47;;;1.57;;
18738;SDS011;9498;51.862;19.460;2023-05-18T10:17:04;2.47;;;1.50;;
18738;SDS011;9498;51.862;19.460;2023-05-18T10:19:33;2.83;;;1.47;;
18738;SDS011;9498;51.862;19.460;2023-05-18T10:22:01;3.67;;;1.53;;
18738;SDS011;9498;51.862;19.460;2023-05-18T10:24:29;2.57;;;1.33;;
18738;SDS011;9498;51.862;19.460;2023-05-18T10:26:57;2.77;;;1.90;;
18738;SDS011;9498;51.862;19.460;2023-05-18T10:29:28;4.20;;;1.80;;
18738;SDS011;9498;51.862;19.460;2023-05-18T10:31:55;3.50;;;1.60;;
18738;SDS011;9498;51.862;19.460;2023-05-18T10:34:28;3.97;;;1.87;;
18738;SDS011;9498;51.862;19.460;2023-05-18T10:36:55;3.80;;;1.40;;
18738;SDS011;9498;51.862;19.460;2023-05-18T10:39:23;4.33;;;1.40;;
18738;SDS011;9498;51.862;19.460;2023-05-18T10:41:53;4.83;;;1.60;;
18738;SDS011;9498;51.862;19.460;2023-05-18T10:44:21;2.83;;;1.60;;
18738;SDS011;9498;51.862;19.460;2023-05-18T10:46:50;4.80;;;1.50;;
18738;SDS011;9498;51.862;19.460;2023-05-18T10:49:17;4.80;;;1.33;;
18738;SDS011;9498;51.862;19.460;2023-05-18T10:51:48;2.50;;;1.17;;
18738;SDS011;9498;51.862;19.460;2023-05-18T10:54:18;2.70;;;1.37;;
18738;SDS011;9498;51.862;19.460;2023-05-18T10:56:47;2.93;;;1.30;;
18738;SDS011;9498;51.862;19.460;2023-05-18T10:59:15;2.43;;;1.50;;
18738;SDS011;9498;51.862;19.460;2023-05-18T11:01:43;2.77;;;1.50;;
18738;SDS011;9498;51.862;19.460;2023-05-18T11:04:11;2.23;;;1.20;;
18738;SDS011;9498;51.862;19.460;2023-05-18T11:06:38;6.13;;;1.80;;
18738;SDS011;9498;51.862;19.460;2023-05-18T11:09:07;3.43;;;1.40;;
18738;SDS011;9498;51.862;19.460;2023-05-18T11:11:49;2.63;;;1.40;;
18738;SDS011;9498;51.862;19.460;2023-05-18T11:14:23;3.37;;;1.47;;
18738;SDS011;9498;51.862;19.460;2023-05-18T11:16:51;4.73;;;1.60;;
18738;SDS011;9498;51.862;19.460;2023-05-18T11:19:18;3.67;;;1.90;;
18738;SDS011;9498;51.862;19.460;2023-05-18T11:21:51;2.90;;;1.40;;
18738;SDS011;9498;51.862;19.460;2023-05-18T11:24:30;5.17;;;1.80;;
18738;SDS011;9498;51.862;19.460;2023-05-18T11:26:58;4.47;;;1.70;;
18738;SDS011;9498;51.862;19.460;2023-05-18T11:29:31;6.50;;;1.60;;
18738;SDS011;9498;51.862;19.460;2023-05-18T11:32:00;2.27;;;1.40;;
18738;SDS011;9498;51.862;19.460;2023-05-18T11:37:16;3.33;;;1.60;;
18738;SDS011;9498;51.862;19.460;2023-05-18T11:39:53;5.30;;;1.60;;
18738;SDS011;9498;51.862;19.460;2023-05-18T11:42:21;4.70;;;1.60;;
18738;SDS011;9498;51.862;19.460;2023-05-18T11:44:51;4.10;;;1.63;;
18738;SDS011;9498;51.862;19.460;2023-05-18T11:47:19;4.87;;;1.83;;
18738;SDS011;9498;51.862;19.460;2023-05-18T11:49:47;5.03;;;1.73;;
18738;SDS011;9498;51.862;19.460;2023-05-18T11:52:16;6.63;;;1.70;;
18738;SDS011;9498;51.862;19.460;2023-05-18T11:54:44;5.93;;;2.13;;
18738;SDS011;9498;51.862;19.460;2023-05-18T11:57:13;3.50;;;1.63;;
18738;SDS011;9498;51.862;19.460;2023-05-18T11:59:42;3.33;;;1.57;;
18738;SDS011;9498;51.862;19.460;2023-05-18T12:02:10;7.90;;;1.40;;
18738;SDS011;9498;51.862;19.460;2023-05-18T12:04:42;5.97;;;1.83;;
18738;SDS011;9498;51.862;19.460;2023-05-18T12:07:09;4.37;;;1.97;;
18738;SDS011;9498;51.862;19.460;2023-05-18T12:09:38;3.67;;;1.70;;
18738;SDS011;9498;51.862;19.460;2023-05-18T12:12:07;4.47;;;1.60;;
18738;SDS011;9498;51.862;19.460;2023-05-18T12:14:37;3.63;;;1.60;;
18738;SDS011;9498;51.862;19.460;2023-05-18T12:17:04;3.50;;;1.87;;
18738;SDS011;9498;51.862;19.460;2023-05-18T12:19:36;3.63;;;1.70;;
18738;SDS011;9498;51.862;19.460;2023-05-18T12:22:03;6.07;;;2.00;;
18738;SDS011;9498;51.862;19.460;2023-05-18T12:24:31;2.50;;;1.70;;
18738;SDS011;9498;51.862;19.460;2023-05-18T12:26:58;6.03;;;1.80;;
18738;SDS011;9498;51.862;19.460;2023-05-18T12:29:28;5.83;;;1.83;;
18738;SDS011;9498;51.862;19.460;2023-05-18T12:31:57;7.60;;;2.37;;
18738;SDS011;9498;51.862;19.460;2023-05-18T12:34:26;4.20;;;1.92;;
18738;SDS011;9498;51.862;19.460;2023-05-18T12:36:55;4.63;;;1.80;;
18738;SDS011;9498;51.862;19.460;2023-05-18T12:39:23;5.60;;;2.03;;
18738;SDS011;9498;51.862;19.460;2023-05-18T12:41:50;7.40;;;1.80;;
18738;SDS011;9498;51.862;19.460;2023-05-18T12:44:18;4.70;;;1.70;;
18738;SDS011;9498;51.862;19.460;2023-05-18T12:46:45;4.90;;;1.90;;
18738;SDS011;9498;51.862;19.460;2023-05-18T12:49:16;3.77;;;1.80;;
18738;SDS011;9498;51.862;19.460;2023-05-18T12:51:44;5.67;;;2.10;;
18738;SDS011;9498;51.862;19.460;2023-05-18T12:54:11;5.20;;;1.83;;
18738;SDS011;9498;51.862;19.460;2023-05-18T12:59:24;4.07;;;1.77;;
18738;SDS011;9498;51.862;19.460;2023-05-18T13:01:52;5.03;;;1.80;;
18738;SDS011;9498;51.862;19.460;2023-05-18T13:04:21;5.97;;;2.00;;
18738;SDS011;9498;51.862;19.460;2023-05-18T13:06:48;4.53;;;1.60;;
18738;SDS011;9498;51.862;19.460;2023-05-18T13:09:15;3.93;;;2.03;;
18738;SDS011;9498;51.862;19.460;2023-05-18T13:11:48;4.87;;;2.07;;
18738;SDS011;9498;51.862;19.460;2023-05-18T13:14:18;3.53;;;1.50;;
18738;SDS011;9498;51.862;19.460;2023-05-18T13:16:48;3.30;;;1.20;;
18738;SDS011;9498;51.862;19.460;2023-05-18T13:19:16;3.63;;;1.57;;
18738;SDS011;9498;51.862;19.460;2023-05-18T13:21:45;3.57;;;1.80;;
18738;SDS011;9498;51.862;19.460;2023-05-18T13:24:12;1.87;;;1.40;;
18738;SDS011;9498;51.862;19.460;2023-05-18T13:26:39;5.70;;;2.07;;
18738;SDS011;9498;51.862;19.460;2023-05-18T13:29:06;2.30;;;1.57;;
18738;SDS011;9498;51.862;19.460;2023-05-18T13:31:34;3.80;;;1.90;;
18738;SDS011;9498;51.862;19.460;2023-05-18T13:34:01;2.77;;;1.80;;
18738;SDS011;9498;51.862;19.460;2023-05-18T13:36:28;2.27;;;1.70;;
18738;SDS011;9498;51.862;19.460;2023-05-18T13:39:01;3.73;;;1.57;;
18738;SDS011;9498;51.862;19.460;2023-05-18T13:41:31;2.93;;;1.63;;
18738;SDS011;9498;51.862;19.460;2023-05-18T13:43:59;4.50;;;1.70;;
18738;SDS011;9498;51.862;19.460;2023-05-18T13:46:26;3.20;;;1.70;;
18738;SDS011;9498;51.862;19.460;2023-05-18T13:48:53;2.93;;;1.60;;
18738;SDS011;9498;51.862;19.460;2023-05-18T13:51:20;2.43;;;1.80;;
18738;SDS011;9498;51.862;19.460;2023-05-18T13:53:48;4.53;;;1.70;;
18738;SDS011;9498;51.862;19.460;2023-05-18T13:56:16;2.63;;;1.53;;
18738;SDS011;9498;51.862;19.460;2023-05-18T13:58:43;4.37;;;1.67;;
18738;SDS011;9498;51.862;19.460;2023-05-18T14:01:11;5.37;;;1.90;;
18738;SDS011;9498;51.862;19.460;2023-05-18T14:03:38;2.63;;;1.70;;
18738;SDS011;9498;51.862;19.460;2023-05-18T14:06:05;3.77;;;1.93;;
18738;SDS011;9498;51.862;19.460;2023-05-18T14:08:33;4.50;;;1.50;;
18738;SDS011;9498;51.862;19.460;2023-05-18T14:11:00;2.63;;;1.60;;
18738;SDS011;9498;51.862;19.460;2023-05-18T14:13:29;3.08;;;1.50;;
18738;SDS011;9498;51.862;19.460;2023-05-18T14:15:56;3.20;;;1.87;;
18738;SDS011;9498;51.862;19.460;2023-05-18T14:18:23;3.10;;;1.77;;
18738;SDS011;9498;51.862;19.460;2023-05-18T14:20:50;1.83;;;1.50;;
18738;SDS011;9498;51.862;19.460;2023-05-18T14:23:18;2.27;;;1.50;;
18738;SDS011;9498;51.862;19.460;2023-05-18T14:25:45;4.73;;;1.60;;
18738;SDS011;9498;51.862;19.460;2023-05-18T14:28:12;2.90;;;1.40;;
18738;SDS011;9498;51.862;19.460;2023-05-18T14:30:41;3.13;;;1.80;;
18738;SDS011;9498;51.862;19.460;2023-05-18T14:33:08;2.57;;;2.07;;
18738;SDS011;9498;51.862;19.460;2023-05-18T14:35:35;3.63;;;1.50;;
18738;SDS011;9498;51.862;19.460;2023-05-18T14:38:04;4.83;;;1.40;;
18738;SDS011;9498;51.862;19.460;2023-05-18T14:40:31;7.57;;;1.73;;
18738;SDS011;9498;51.862;19.460;2023-05-18T14:42:58;3.73;;;1.30;;
18738;SDS011;9498;51.862;19.460;2023-05-18T14:45:25;2.33;;;1.33;;
18738;SDS011;9498;51.862;19.460;2023-05-18T14:47:54;5.77;;;1.40;;
18738;SDS011;9498;51.862;19.460;2023-05-18T14:50:21;2.23;;;1.63;;
18738;SDS011;9498;51.862;19.460;2023-05-18T14:52:49;3.53;;;1.60;;
18738;SDS011;9498;51.862;19.460;2023-05-18T14:55:16;4.23;;;1.60;;